Scottsville, South Carolina
Current Conditions -  °F | °C
As of 3:15 PM on Monday 24 Nov 2014 (Local Time) from KSMS Reporting Station
Scattered Clouds Scattered Clouds  
Wind Chill: 72°   Ceiling: Unl
Heat Index: 72°   Visibility: 10mi
Dew Point: 68°   Wind: 8mph
Humidity: 88%   Direction: 170°S
Pressure: 29.82"   Gusts: NA
Location:  34.0634°N, 80.2361°W
Report Text: KSMS 242015Z AUTO 17007KT 10SM SCT013 SCT018 SCT080 22/20 A2982 RMK AO2 LTG DSNT N
Loading
Personal Weather Stations






























Interactive Weather Map New forecast layout! Learn more

10-Day Weather Forecast

Advertisements
Track Severe Weather on mobile